Terminal Aerodrome Forecast
Issued by NWS

Home | Current Version | Previous Version | Text Only | Print | Product List | Glossary On
Versions: 1 2 3 4 5 6 7 8 9 10 11 12 13 14 15 16 17 18 19 20 21 22 23 24 25 26 27 28 29 30 31 32 33 34 35 36 37 38 39 40 41 42 43
000
FTUS44 KFWD 292050 AAC
TAFFTW
TAF AMD
KFTW 292050Z 2921/3018 VRB03KT P6SM VCSH OVC035
     FM292300 24006KT P6SM BKN050
     FM300500 15008KT P6SM VCTS BKN025CB
     FM300900 VRB04KT 3SM -TSRA OVC010CB
     FM301500 33008KT P6SM VCSH BKN025=

USA.gov is the U.S. government's official web portal to all federal, state and local government web resources and services.